Flight Track Log - Related Links

Times and Time Zones

All times are in EDT time to prevent confusion due to time zone crossing. See the DAL2082 flight status page for this flight to view local times or setup timezone preferences in your user account.

Time Position Orientation Groundspeed Altitude Reporting Facility
EDT Latitude Longitude Course Direction KTS MPH feet Rate Location/Type
Fri 06:00:37 PM 42.9500 -71.4333 115° Southeast 163 188 1,100  Level KA90
Fri 06:02:19 PM 43.0500 -71.4833 340° North 254 292 4,800 2,538 Climbing KA90
Fri 06:03:00 PM 42.7453 -71.7600 202° Southwest  Level Estimated
Fri 06:03:13 PM 43.1167 -71.5000 350° North 266 306 7,700  Level KA90
Fri 06:04:00 PM 42.7605 -71.6241 81° East  Level FlightAware Approximate
Fri 06:04:50 PM 43.1142 -71.3394 91° East 304 350 10,300  Level Boston Center
Fri 06:05:00 PM 42.6982 -71.7322 200° South  Level Estimated
Fri 06:05:51 PM 43.0772 -71.1950 109° East 358 412 11,300  Level Boston Center
Fri 06:06:00 PM 42.6553 -71.6080 115° Southeast  Level FlightAware Approximate
Fri 06:06:51 PM 43.0686 -71.0078 94° East 428 493 13,600  Level Boston Center
Fri 06:07:52 PM 42.9925 -70.9072 136° Southeast 395 455 15,700 2,182 Climbing Boston Center
Fri 06:08:52 PM 42.8742 -70.9414 192° South 364 419 18,000 2,132 Climbing Boston Center
Fri 06:09:53 PM 42.7725 -70.9892 199° South 375 432 20,000 1,831 Climbing Boston Center
Fri 06:10:50 PM 42.6628 -71.0425 200° South 404 465 21,600 1,590 Climbing Boston Center
Fri 06:11:50 PM 42.5508 -71.0986 200° South 421 484 23,100 1,636 Climbing Boston Center
Fri 06:12:51 PM 42.4811 -71.2069 229° Southwest 387 445 24,900 1,884 Climbing Boston Center
Fri 06:13:51 PM 42.4514 -71.3511 254° West 376 433 26,900 1,950 Climbing Boston Center
Fri 06:14:51 PM 42.4278 -71.4867 257° West 376 433 28,800 1,884 Climbing Boston Center
Fri 06:15:52 PM 42.3972 -71.6022 250° West 376 433 30,700 1,525 Climbing Boston Center
Fri 06:16:53 PM 42.3522 -71.7153 242° Southwest 366 421 31,900 661 Climbing Boston Center
Fri 06:17:50 PM 42.3028 -71.8339 241° Southwest 354 407 32,000 51 Climbing Boston Center
Fri 06:18:50 PM 42.2514 -71.9519 240° Southwest 359 413 32,000  Level Boston Center
Fri 06:19:51 PM 42.2019 -72.0731 241° Southwest 359 413 32,000  Level Boston Center
Fri 06:20:51 PM 42.1522 -72.1881 240° Southwest 364 419 32,000  Level Boston Center
Fri 06:21:52 PM 42.1022 -72.3031 240° Southwest 359 413 32,000  Level Boston Center
Fri 06:22:52 PM 42.0522 -72.4233 241° Southwest 359 413 32,000  Level Boston Center
Fri 06:23:52 PM 42.0044 -72.5406 241° Southwest 359 413 32,000  Level Boston Center
Fri 06:24:50 PM 41.9542 -72.6494 238° Southwest 359 413 32,000  Level Boston Center
Fri 06:25:50 PM 41.9061 -72.7692 242° Southwest 353 406 32,000  Level Boston Center
Fri 06:26:51 PM 41.8556 -72.8778 238° Southwest 359 413 32,000  Level Boston Center
Fri 06:27:51 PM 41.8114 -73.0028 245° Southwest 359 413 32,000  Level Boston Center
Fri 06:28:53 PM 41.8231 -73.1336 277° West 352 405 32,000  Level Boston Center
Fri 06:29:50 PM 41.8431 -73.2650 282° West 352 405 32,000  Level Boston Center
Fri 06:31:54 PM 41.8481 -73.5194 272° West 343 395 32,000  Level New York Center
Fri 06:32:54 PM 41.7792 -73.6139 226° Southwest 317 365 32,000  Level New York Center
Fri 06:33:54 PM 41.7083 -73.6997 222° Southwest 333 383 32,000 -150 Level New York Center
Fri 06:34:54 PM 41.6333 -73.7825 220° Southwest 343 395 31,700 -450 Descending New York Center
Fri 06:35:54 PM 41.5581 -73.8761 223° Southwest 348 400 31,100 -550 Descending New York Center
Fri 06:36:54 PM 41.4850 -73.9642 222° Southwest 353 406 30,600 -500 Descending New York Center
Fri 06:37:54 PM 41.4117 -74.0519 222° Southwest 353 406 30,100 -300 Descending New York Center
Fri 06:38:54 PM 41.3364 -74.1394 221° Southwest 353 406 30,000 -50 Descending New York Center
Fri 06:39:54 PM 41.2697 -74.2133 220° Southwest 353 406 30,000  Level New York Center
Fri 06:40:54 PM 41.1922 -74.2947 218° Southwest 358 412 30,000  Level New York Center
Fri 06:41:54 PM 41.1208 -74.3875 224° Southwest 358 412 30,000  Level New York Center
Fri 06:42:54 PM 41.0431 -74.4742 220° Southwest 358 412 30,000  Level New York Center
Fri 06:43:54 PM 40.9675 -74.5606 221° Southwest 363 418 30,000  Level New York Center
Fri 06:44:54 PM 40.8939 -74.6472 222° Southwest 363 418 30,000  Level New York Center
Fri 06:45:54 PM 40.8117 -74.7383 220° Southwest 374 430 30,000  Level New York Center
Fri 06:46:54 PM 40.7378 -74.8272 222° Southwest 374 430 30,000  Level New York Center
Fri 06:47:54 PM 40.6617 -74.9156 221° Southwest 374 430 30,000  Level New York Center
Fri 06:48:54 PM 40.5839 -74.9983 219° Southwest 369 425 30,000  Level New York Center
Fri 06:49:54 PM 40.5178 -75.0981 229° Southwest 369 425 30,000  Level New York Center
Fri 06:50:54 PM 40.4536 -75.1978 230° Southwest 369 425 30,000  Level New York Center
Fri 06:51:54 PM 40.3911 -75.3028 232° Southwest 369 425 30,000  Level New York Center
Fri 06:52:54 PM 40.3269 -75.4047 230° Southwest 369 425 30,000  Level New York Center
Fri 06:53:54 PM 40.2625 -75.5036 230° Southwest 369 425 30,000  Level New York Center
Fri 06:54:54 PM 40.2039 -75.6083 234° Southwest 364 419 30,000  Level New York Center
Fri 06:55:54 PM 40.1472 -75.7186 236° Southwest 364 419 30,000  Level New York Center
Fri 06:56:54 PM 40.0928 -75.8233 236° Southwest 364 419 30,000  Level New York Center
Fri 06:57:54 PM 40.0422 -75.9333 239° Southwest 364 419 30,000  Level New York Center
Fri 06:58:54 PM 40.0325 -76.0603 264° West 343 395 30,000  Level New York Center
Fri 06:59:54 PM 40.0475 -76.1889 279° West 343 395 30,000  Level New York Center
Fri 07:00:54 PM 40.0189 -76.3114 253° West 350 403 30,000  Level New York Center
Fri 07:01:54 PM 39.9475 -76.4058 225° Southwest 345 397 30,000  Level New York Center
Fri 07:03:35 PM 39.8286 -76.5586 225° Southwest 368 423 30,000  Level Washington Center
Fri 07:04:36 PM 39.7547 -76.6522 224° Southwest 374 430 30,000  Level Washington Center
Fri 07:05:34 PM 39.6853 -76.7403 224° Southwest 368 423 30,000  Level Washington Center
Fri 07:06:35 PM 39.6136 -76.8306 224° Southwest 368 423 30,000  Level Washington Center
Fri 07:07:36 PM 39.5397 -76.9236 224° Southwest 363 418 30,000  Level Washington Center
Fri 07:08:34 PM 39.4656 -77.0108 222° Southwest 363 418 30,000  Level Washington Center
Fri 07:09:34 PM 39.3856 -77.0953 219° Southwest 370 426 30,000  Level Washington Center
Fri 07:10:35 PM 39.3072 -77.1769 219° Southwest 370 426 30,000  Level Washington Center
Fri 07:11:36 PM 39.2292 -77.2608 220° Southwest 370 426 30,000  Level Washington Center
Fri 07:12:35 PM 39.1528 -77.3447 220° Southwest 365 420 30,000  Level Washington Center
Fri 07:13:36 PM 39.0869 -77.4369 227° Southwest 360 414 30,000  Level Washington Center
Fri 07:14:35 PM 39.0122 -77.5444 228° Southwest 365 420 30,000  Level Washington Center
Fri 07:15:36 PM 38.9544 -77.6283 228° Southwest 370 426 30,000  Level Washington Center
Fri 07:16:36 PM 38.8797 -77.7356 228° Southwest 365 420 30,000  Level Washington Center
Fri 07:17:34 PM 38.8092 -77.8347 228° Southwest 359 413 30,000  Level Washington Center
Fri 07:18:35 PM 38.7447 -77.9258 228° Southwest 365 420 30,000  Level Washington Center
Fri 07:19:35 PM 38.6783 -78.0169 227° Southwest 359 413 30,000  Level Washington Center
Fri 07:20:34 PM 38.6139 -78.1106 229° Southwest 359 413 30,000  Level Washington Center
Fri 07:21:36 PM 38.5494 -78.2011 228° Southwest 359 413 30,000  Level Washington Center
Fri 07:22:36 PM 38.4828 -78.2969 228° Southwest 359 413 30,000  Level Washington Center
Fri 07:23:36 PM 38.4136 -78.3953 228° Southwest 364 419 30,000  Level Washington Center
Fri 07:24:35 PM 38.3447 -78.4933 228° Southwest 364 419 30,000  Level Washington Center
Fri 07:25:35 PM 38.2756 -78.5911 228° Southwest 370 426 30,000 -99 Level Washington Center
Fri 07:26:36 PM 38.2192 -78.6761 230° Southwest 370 426 29,800 -347 Descending Washington Center
Fri 07:27:36 PM 38.1478 -78.7761 228° Southwest 376 433 29,300 -458 Descending Washington Center
Fri 07:28:34 PM 38.0761 -78.8758 228° Southwest 381 438 28,900 -504 Descending Washington Center
Fri 07:29:35 PM 37.9958 -78.9856 227° Southwest 381 438 28,300 -443 Descending Washington Center
Fri 07:30:36 PM 37.9222 -79.0850 227° Southwest 387 445 28,000 -149 Descending Washington Center
Fri 07:31:36 PM 37.8503 -79.1869 228° Southwest 387 445 28,000  Level Washington Center
Fri 07:32:36 PM 37.7764 -79.2886 227° Southwest 387 445 28,000  Level Washington Center
Fri 07:33:34 PM 37.7003 -79.3872 226° Southwest 393 452 28,000  Level Washington Center
Fri 07:34:35 PM 37.6347 -79.4783 228° Southwest 393 452 28,000  Level Washington Center
Fri 07:35:35 PM 37.5517 -79.5919 227° Southwest 398 458 28,000  Level Washington Center
Fri 07:36:36 PM 37.4861 -79.6828 228° Southwest 398 458 28,000  Level Washington Center
Fri 07:37:36 PM 37.4094 -79.7911 228° Southwest 416 479 28,000  Level Washington Center
Fri 07:38:34 PM 37.3369 -79.8889 227° Southwest 411 473 28,000  Level Washington Center
Fri 07:40:31 PM 37.1894 -80.0894 227° Southwest 403 464 28,000  Level Atlanta Center
Fri 07:41:31 PM 37.1136 -80.1894 226° Southwest 403 464 28,000  Level Atlanta Center
Fri 07:42:31 PM 37.0375 -80.2894 226° Southwest 403 464 28,000  Level Atlanta Center
Fri 07:43:31 PM 36.9553 -80.4022 228° Southwest 403 464 28,000  Level Atlanta Center
Fri 07:44:31 PM 36.8811 -80.5044 228° Southwest 403 464 28,000  Level Atlanta Center
Fri 07:45:31 PM 36.8006 -80.6039 225° Southwest 408 470 28,000  Level Atlanta Center
Fri 07:46:31 PM 36.7281 -80.7003 227° Southwest 396 456 28,000  Level Atlanta Center
Fri 07:47:31 PM 36.6517 -80.7992 226° Southwest 396 456 28,000  Level Atlanta Center
Fri 07:48:31 PM 36.5750 -80.9031 227° Southwest 396 456 28,000  Level Atlanta Center
Fri 07:49:31 PM 36.5106 -80.9908 228° Southwest 401 461 28,000  Level Atlanta Center
Fri 07:50:31 PM 36.4317 -81.0944 227° Southwest 408 470 28,000  Level Atlanta Center
Fri 07:51:31 PM 36.3569 -81.1953 227° Southwest 408 470 28,000  Level Atlanta Center
Fri 07:52:31 PM 36.2800 -81.2958 227° Southwest 408 470 28,000  Level Atlanta Center
Fri 07:53:31 PM 36.2050 -81.3961 227° Southwest 401 461 28,000  Level Atlanta Center
Fri 07:54:31 PM 36.1258 -81.4989 226° Southwest 406 467 28,000  Level Atlanta Center
Fri 07:55:31 PM 36.0486 -81.5989 226° Southwest 406 467 28,000  Level Atlanta Center
Fri 07:56:31 PM 35.9733 -81.6961 226° Southwest 399 459 28,000  Level Atlanta Center
Fri 07:57:31 PM 35.8961 -81.7983 227° Southwest 404 465 28,000  Level Atlanta Center
Fri 07:58:31 PM 35.8164 -81.8978 225° Southwest 409 471 28,000  Level Atlanta Center
Fri 07:59:31 PM 35.7328 -82.0100 227° Southwest 409 471 28,000  Level Atlanta Center
Fri 08:00:31 PM 35.6508 -82.1042 223° Southwest 403 464 28,000  Level Atlanta Center
Fri 08:01:31 PM 35.5708 -82.1953 223° Southwest 403 464 28,000  Level Atlanta Center
Fri 08:02:31 PM 35.4889 -82.2917 224° Southwest 403 464 28,000 -700 Level Atlanta Center
Fri 08:03:31 PM 35.4067 -82.3825 222° Southwest 403 464 26,600 -1,300 Descending Atlanta Center
Fri 08:04:31 PM 35.3203 -82.4783 222° Southwest 408 470 25,400 -1,250 Descending Atlanta Center
Fri 08:05:31 PM 35.2381 -82.5742 224° Southwest 414 476 24,100 -700 Descending Atlanta Center
Fri 08:06:31 PM 35.1617 -82.6567 221° Southwest 414 476 24,000 -50 Descending Atlanta Center
Fri 08:07:31 PM 35.0750 -82.7494 221° Southwest 414 476 24,000  Level Atlanta Center
Fri 08:08:31 PM 34.9925 -82.8447 223° Southwest 414 476 24,000  Level Atlanta Center
Fri 08:09:31 PM 34.8975 -82.9422 220° Southwest 409 471 24,000  Level Atlanta Center
Fri 08:10:31 PM 34.8108 -83.0369 222° Southwest 409 471 24,000  Level Atlanta Center
Fri 08:11:31 PM 34.7300 -83.1314 224° Southwest 409 471 24,000  Level Atlanta Center
Fri 08:12:31 PM 34.6453 -83.2283 223° Southwest 419 482 24,000  Level Atlanta Center
Fri 08:13:31 PM 34.5581 -83.3225 222° Southwest 414 476 24,000 -950 Level Atlanta Center
Fri 08:14:31 PM 34.4750 -83.4139 222° Southwest 414 476 22,100 -2,350 Descending Atlanta Center
Fri 08:15:31 PM 34.3942 -83.5050 223° Southwest 409 471 19,300 -2,500 Descending Atlanta Center
Fri 08:16:31 PM 34.3131 -83.5911 221° Southwest 401 461 17,100 -2,550 Descending Atlanta Center
Fri 08:17:31 PM 34.2342 -83.6794 223° Southwest 394 453 14,200 -2,450 Descending Atlanta Center
Fri 08:18:31 PM 34.1675 -83.7550 223° Southwest 382 440 12,200 -1,150 Descending Atlanta Center
Fri 08:19:31 PM 34.0967 -83.8331 222° Southwest 361 415 11,900 -600 Descending Atlanta Center
Fri 08:20:31 PM 34.0383 -83.8958 222° Southwest 310 357 11,000 -1,250 Descending Atlanta Center
Fri 08:21:31 PM 33.9842 -83.9561 223° Southwest 277 319 9,400 -1,000 Descending Atlanta Center
Fri 08:22:31 PM 33.9133 -83.9686 188° South 254 292 9,000 -450 Descending Atlanta Center
Fri 08:23:31 PM 33.8297 -83.9664 179° South 266 306 8,500 -500 Descending Atlanta Center
Fri 08:24:31 PM 33.7544 -83.9614 177° South 273 314 8,000 -500 Descending Atlanta Center
Fri 08:25:31 PM 33.6858 -83.9839 195° South 267 307 7,500 -550 Descending Atlanta Center
Fri 08:26:31 PM 33.6294 -84.0314 215° Southwest 249 287 6,900 -947 Descending Atlanta Center
Fri 08:27:44 PM 33.6333 -84.1333 273° West 258 297 5,400 -1,263 Descending Atlanta TRACON
Fri 08:28:44 PM 33.6333 -84.2167 270° West 246 283 4,100 -1,200 Descending Atlanta TRACON
Fri 08:29:44 PM 33.6333 -84.2833 270° West 200 230 3,000 -950 Descending Atlanta TRACON
Fri 08:30:44 PM 33.6333 -84.3500 270° West 154 177 2,200 -800 Descending Atlanta TRACON
Fri 08:31:44 PM 33.6333 -84.3833 270° West 140 161 1,400 -800 Descending Atlanta TRACON

Login

Don't have an account? Register now (free) for customized features, flight alerts, and more!